Time,TemperatureF,DewpointF,PressureIn,WindDirection,WindDirectionDegrees,WindSpeedMPH,WindSpeedGustMPH,Humidity,HourlyPrecipIn,Conditions,Clouds,dailyrainin,SoftwareType,DateUTC
2013-03-25 00:02:00,30.0,25.0,29.72,NE,51,18.0,0.0,82,0.03,,,-99.99,,2013-03-25 04:02:00,
2013-03-25 00:13:00,30.0,25.0,29.72,NE,51,18.0,0.0,82,0.03,,,-99.99,,2013-03-25 04:13:00,
2013-03-25 00:23:00,30.0,25.0,29.73,NE,42,15.0,0.0,82,0.03,,,-99.99,,2013-03-25 04:23:00,
2013-03-25 00:33:00,30.0,25.0,29.73,NNE,21,13.0,0.0,82,0.03,,,-99.99,,2013-03-25 04:33:00,
2013-03-25 00:43:00,30.0,25.0,29.73,NNE,21,13.0,0.0,82,0.03,,,-99.99,,2013-03-25 04:43:00,
2013-03-25 00:52:00,30.0,26.0,29.72,NE,45,16.0,0.0,84,0.03,,,-99.99,,2013-03-25 04:52:00,
2013-03-25 01:03:00,30.0,26.0,29.72,NNE,25,14.0,0.0,85,0.03,,,-99.99,,2013-03-25 05:03:00,
2013-03-25 01:12:00,30.0,26.0,29.72,NNE,25,14.0,0.0,85,0.03,,,-99.99,,2013-03-25 05:12:00,
2013-03-25 01:22:00,30.0,26.0,29.72,NE,51,11.0,0.0,86,0.03,,,-99.99,,2013-03-25 05:22:00,
2013-03-25 01:32:00,30.0,26.0,29.72,NNE,27,14.0,0.0,86,0.03,,,-99.99,,2013-03-25 05:32:00,
2013-03-25 01:42:00,30.0,26.0,29.72,NNE,27,14.0,0.0,86,0.03,,,-99.99,,2013-03-25 05:42:00,
2013-03-25 01:53:00,31.0,28.0,29.72,NE,38,12.0,0.0,87,0.03,,,-99.99,,2013-03-25 05:53:00,
2013-03-25 02:02:00,31.0,28.0,29.71,NNE,18,14.0,0.0,88,0.03,,,-99.99,,2013-03-25 06:02:00,
2013-03-25 02:12:00,31.0,28.0,29.71,NNE,18,14.0,0.0,88,0.03,,,-99.99,,2013-03-25 06:12:00,
2013-03-25 02:22:00,31.0,28.0,29.71,NNE,14,15.0,0.0,88,0.03,,,-99.99,,2013-03-25 06:22:00,
2013-03-25 02:32:00,31.0,28.0,29.71,NE,38,16.0,0.0,89,0.03,,,-99.99,,2013-03-25 06:32:00,
2013-03-25 02:42:00,31.0,28.0,29.71,NE,38,16.0,0.0,89,0.03,,,-99.99,,2013-03-25 06:42:00,
2013-03-25 02:52:00,31.0,28.0,29.70,North,8,15.0,0.0,89,0.03,,,-99.99,,2013-03-25 06:52:00,
2013-03-25 03:02:00,31.0,28.0,29.70,North,11,15.0,0.0,90,0.03,,,-99.99,,2013-03-25 07:02:00,
2013-03-25 03:13:00,31.0,28.0,29.70,North,11,15.0,0.0,90,0.03,,,-99.99,,2013-03-25 07:13:00,
2013-03-25 03:22:00,31.0,29.0,29.70,NE,52,14.0,0.0,91,0.03,,,-99.99,,2013-03-25 07:22:00,
2013-03-25 03:32:00,31.0,29.0,29.70,NNE,27,14.0,0.0,91,0.03,,,-99.99,,2013-03-25 07:32:00,
2013-03-25 03:42:00,31.0,29.0,29.70,NNE,27,14.0,0.0,91,0.03,,,-99.99,,2013-03-25 07:42:00,
2013-03-25 03:53:00,31.0,28.0,29.70,NNE,27,14.0,0.0,90,0.03,,,-99.99,,2013-03-25 07:53:00,
2013-03-25 04:03:00,30.0,27.0,29.69,North,4,14.0,0.0,89,0.03,,,-99.99,,2013-03-25 08:03:00,
2013-03-25 04:12:00,30.0,27.0,29.69,North,4,14.0,0.0,89,0.03,,,-99.99,,2013-03-25 08:12:00,
2013-03-25 04:23:00,30.0,27.0,29.68,NNE,13,13.0,0.0,89,0.03,,,-99.99,,2013-03-25 08:23:00,
2013-03-25 04:32:00,29.0,26.0,29.68,North,11,13.0,0.0,90,0.03,,,-99.99,,2013-03-25 08:32:00,
2013-03-25 04:43:00,29.0,26.0,29.68,North,11,13.0,0.0,90,0.03,,,-99.99,,2013-03-25 08:43:00,
2013-03-25 04:52:00,29.0,27.0,29.68,North,11,13.0,0.0,91,0.03,,,-99.99,,2013-03-25 08:52:00,
2013-03-25 05:02:00,29.0,27.0,29.67,NE,34,14.0,0.0,91,0.03,,,-99.99,,2013-03-25 09:02:00,
2013-03-25 05:12:00,29.0,27.0,29.67,NE,34,14.0,0.0,91,0.03,,,-99.99,,2013-03-25 09:12:00,
2013-03-25 05:22:00,30.0,28.0,29.67,NNE,30,17.0,0.0,92,0.03,,,-99.99,,2013-03-25 09:22:00,
2013-03-25 05:33:00,30.0,28.0,29.67,NNE,18,15.0,0.0,92,0.03,,,-99.99,,2013-03-25 09:33:00,
2013-03-25 05:43:00,30.0,28.0,29.67,NNE,18,15.0,0.0,92,0.03,,,-99.99,,2013-03-25 09:43:00,
2013-03-25 05:53:00,30.0,28.0,29.67,North,7,15.0,0.0,92,0.03,,,-99.99,,2013-03-25 09:53:00,
2013-03-25 06:03:00,30.0,28.0,29.67,NNE,23,14.0,0.0,93,0.03,,,-99.99,,2013-03-25 10:03:00,
2013-03-25 06:12:00,30.0,28.0,29.67,NNE,23,14.0,0.0,93,0.03,,,-99.99,,2013-03-25 10:12:00,
2013-03-25 06:23:00,29.0,27.0,29.67,NE,34,17.0,0.0,93,0.03,,,-99.99,,2013-03-25 10:23:00,
2013-03-25 06:33:00,29.0,27.0,29.67,NNE,20,15.0,0.0,93,0.03,,,-99.99,,2013-03-25 10:33:00,
2013-03-25 06:42:00,29.0,27.0,29.67,NNE,20,15.0,0.0,93,0.03,,,-99.99,,2013-03-25 10:42:00,
2013-03-25 06:53:00,30.0,28.0,29.68,NNE,25,15.0,0.0,93,0.03,,,-99.99,,2013-03-25 10:53:00,
2013-03-25 07:03:00,30.0,28.0,29.68,NNE,20,14.0,0.0,93,0.03,,,-99.99,,2013-03-25 11:03:00,
2013-03-25 07:12:00,30.0,28.0,29.68,NNE,20,14.0,0.0,93,0.03,,,-99.99,,2013-03-25 11:12:00,
2013-03-25 07:23:00,29.0,27.0,29.69,NNE,21,15.0,0.0,93,0.03,,,-99.99,,2013-03-25 11:23:00,
2013-03-25 07:32:00,29.0,27.0,29.69,NNE,20,13.0,0.0,94,0.03,,,-99.99,,2013-03-25 11:32:00,
2013-03-25 07:42:00,29.0,27.0,29.69,NNE,20,13.0,0.0,94,0.03,,,-99.99,,2013-03-25 11:42:00,
2013-03-25 07:53:00,29.0,27.0,29.70,NNW,347,14.0,0.0,94,0.03,,,-99.99,,2013-03-25 11:53:00,
2013-03-25 08:03:00,29.0,27.0,29.70,NNW,347,14.0,0.0,94,0.03,,,-99.99,,2013-03-25 12:03:00,
2013-03-25 08:13:00,29.0,27.0,29.70,NNW,347,14.0,0.0,94,0.03,,,-99.99,,2013-03-25 12:13:00,
2013-03-25 08:23:00,30.0,28.0,29.70,NNE,14,12.0,0.0,94,0.03,,,-99.99,,2013-03-25 12:23:00,
2013-03-25 08:33:00,30.0,28.0,29.71,NNE,25,12.0,0.0,94,0.03,,,-99.99,,2013-03-25 12:33:00,
2013-03-25 08:43:00,30.0,28.0,29.71,NNE,25,12.0,0.0,94,0.03,,,-99.99,,2013-03-25 12:43:00,
2013-03-25 08:54:00,30.0,28.0,29.71,North,7,12.0,0.0,94,0.03,,,-99.99,,2013-03-25 12:54:00,
2013-03-25 09:03:00,30.0,28.0,29.72,NE,34,14.0,0.0,94,0.03,,,-99.99,,2013-03-25 13:03:00,
2013-03-25 09:13:00,30.0,28.0,29.72,NE,34,14.0,0.0,94,0.03,,,-99.99,,2013-03-25 13:13:00,
2013-03-25 09:23:00,30.0,28.0,29.72,NNE,28,16.0,0.0,94,0.03,,,-99.99,,2013-03-25 13:23:00,
2013-03-25 09:32:00,31.0,29.0,29.73,NE,35,13.0,0.0,94,0.03,,,-99.99,,2013-03-25 13:32:00,
2013-03-25 09:43:00,31.0,29.0,29.73,NE,35,13.0,0.0,94,0.03,,,-99.99,,2013-03-25 13:43:00,
2013-03-25 09:53:00,31.0,29.0,29.73,North,6,13.0,0.0,93,0.03,,,-99.99,,2013-03-25 13:53:00,
2013-03-25 10:03:00,31.0,29.0,29.73,North,4,15.0,0.0,93,0.03,,,-99.99,,2013-03-25 14:03:00,
2013-03-25 10:12:00,31.0,29.0,29.73,North,4,15.0,0.0,93,0.03,,,-99.99,,2013-03-25 14:12:00,
2013-03-25 10:23:00,31.0,29.0,29.73,North,4,15.0,0.0,93,0.03,,,-99.99,,2013-03-25 14:23:00,
2013-03-25 10:32:00,31.0,29.0,29.73,North,4,15.0,0.0,93,0.03,,,-99.99,,2013-03-25 14:32:00,
2013-03-25 10:43:00,31.0,29.0,29.73,North,4,15.0,0.0,93,0.03,,,-99.99,,2013-03-25 14:43:00,
2013-03-25 10:53:00,32.0,30.0,29.74,North,1,12.0,0.0,91,0.03,,,-99.99,,2013-03-25 14:53:00,
2013-03-25 11:03:00,33.0,30.0,29.75,North,11,15.0,0.0,90,0.03,,,-99.99,,2013-03-25 15:03:00,
2013-03-25 11:13:00,33.0,30.0,29.75,North,11,15.0,0.0,90,0.03,,,-99.99,,2013-03-25 15:13:00,
2013-03-25 11:23:00,33.0,30.0,29.75,North,359,12.0,0.0,89,0.03,,,-99.99,,2013-03-25 15:23:00,
2013-03-25 11:32:00,34.0,30.0,29.76,North,3,14.0,0.0,86,0.03,,,-99.99,,2013-03-25 15:32:00,
2013-03-25 11:33:00,33.0,30.0,29.75,North,359,12.0,0.0,89,0.03,,,-99.99,,2013-03-25 15:33:00,
2013-03-25 11:43:00,33.0,30.0,29.75,North,359,12.0,0.0,89,0.03,,,-99.99,,2013-03-25 15:43:00,
2013-03-25 11:54:00,34.0,30.0,29.76,North,3,14.0,0.0,86,0.03,,,-99.99,,2013-03-25 15:54:00,
2013-03-25 12:03:00,34.0,30.0,29.76,North,3,14.0,0.0,86,0.03,,,-99.99,,2013-03-25 16:03:00,
2013-03-25 12:13:00,34.0,30.0,29.76,North,3,14.0,0.0,86,0.03,,,-99.99,,2013-03-25 16:13:00,
2013-03-25 12:23:00,34.0,30.0,29.76,North,3,14.0,0.0,86,0.03,,,-99.99,,2013-03-25 16:23:00,
2013-03-25 14:23:00,36.0,30.0,29.79,North,356,18.0,0.0,79,0.03,,,-99.99,,2013-03-25 18:23:00,
2013-03-25 14:33:00,36.0,30.0,29.79,North,356,18.0,0.0,79,0.03,,,-99.99,,2013-03-25 18:33:00,
2013-03-25 14:43:00,36.0,30.0,29.79,North,356,18.0,0.0,79,0.03,,,-99.99,,2013-03-25 18:43:00,
2013-03-25 14:53:00,36.0,29.0,29.79,North,357,17.0,0.0,77,0.03,,,-99.99,,2013-03-25 18:53:00,
2013-03-25 15:03:00,36.0,29.0,29.79,North,357,17.0,0.0,77,0.03,,,-99.99,,2013-03-25 19:03:00,
2013-03-25 15:13:00,36.0,29.0,29.79,North,357,17.0,0.0,77,0.03,,,-99.99,,2013-03-25 19:13:00,
2013-03-25 15:23:00,36.0,29.0,29.79,North,357,17.0,0.0,77,0.03,,,-99.99,,2013-03-25 19:23:00,
2013-03-25 15:53:00,37.0,29.0,29.80,North,3,16.0,0.0,72,0.03,,,-99.99,,2013-03-25 19:53:00,
2013-03-25 16:02:00,37.0,29.0,29.80,North,3,16.0,0.0,72,0.03,,,-99.99,,2013-03-25 20:02:00,
2013-03-25 16:12:00,37.0,29.0,29.80,North,3,16.0,0.0,72,0.03,,,-99.99,,2013-03-25 20:12:00,
2013-03-25 16:22:00,37.0,29.0,29.80,North,3,16.0,0.0,72,0.03,,,-99.99,,2013-03-25 20:22:00,
2013-03-25 16:52:00,37.0,28.0,29.81,North,357,14.0,0.0,69,0.03,,,-99.99,,2013-03-25 20:52:00,
2013-03-25 17:03:00,37.0,28.0,29.81,North,356,13.0,0.0,69,0.03,,,-99.99,,2013-03-25 21:03:00,
2013-03-25 17:13:00,37.0,28.0,29.81,North,356,13.0,0.0,69,0.03,,,-99.99,,2013-03-25 21:13:00,
2013-03-25 17:22:00,37.0,28.0,29.81,North,356,13.0,0.0,69,0.03,,,-99.99,,2013-03-25 21:22:00,
2013-03-25 17:33:00,37.0,28.0,29.81,North,356,13.0,0.0,69,0.03,,,-99.99,,2013-03-25 21:33:00,
2013-03-25 17:43:00,37.0,28.0,29.81,North,356,13.0,0.0,69,0.03,,,-99.99,,2013-03-25 21:43:00,
2013-03-25 18:33:00,38.0,29.0,29.85,North,356,11.0,0.0,69,0.03,,,-99.99,,2013-03-25 22:33:00,
2013-03-25 18:43:00,38.0,29.0,29.85,North,356,11.0,0.0,69,0.03,,,-99.99,,2013-03-25 22:43:00,
2013-03-25 18:52:00,38.0,29.0,29.85,North,356,11.0,0.0,69,0.03,,,-99.99,,2013-03-25 22:52:00,
2013-03-25 19:03:00,38.0,29.0,29.85,North,356,11.0,0.0,69,0.03,,,-99.99,,2013-03-25 23:03:00,
2013-03-25 19:12:00,38.0,29.0,29.85,North,356,11.0,0.0,69,0.03,,,-99.99,,2013-03-25 23:12:00,
2013-03-25 19:23:00,37.0,29.0,29.87,North,3,12.0,0.0,74,0.03,,,-99.99,,2013-03-25 23:23:00,
2013-03-25 19:33:00,37.0,29.0,29.87,North,3,12.0,0.0,74,0.03,,,-99.99,,2013-03-25 23:33:00,
2013-03-25 19:43:00,37.0,29.0,29.87,North,3,12.0,0.0,74,0.03,,,-99.99,,2013-03-25 23:43:00,
2013-03-25 19:53:00,37.0,30.0,29.88,North,357,12.0,0.0,75,0.03,,,-99.99,,2013-03-25 23:53:00,
2013-03-25 20:02:00,37.0,30.0,29.88,North,357,12.0,0.0,75,0.03,,,-99.99,,2013-03-26 00:02:00,
2013-03-25 20:12:00,37.0,30.0,29.88,North,357,12.0,0.0,75,0.03,,,-99.99,,2013-03-26 00:12:00,
2013-03-25 20:22:00,36.0,29.0,29.91,North,8,11.0,0.0,76,0.03,,,-99.99,,2013-03-26 00:22:00,
2013-03-25 20:33:00,36.0,29.0,29.91,North,8,11.0,0.0,76,0.03,,,-99.99,,2013-03-26 00:33:00,
2013-03-25 20:43:00,36.0,29.0,29.91,North,8,11.0,0.0,76,0.03,,,-99.99,,2013-03-26 00:43:00,
2013-03-25 20:52:00,36.0,29.0,29.91,North,8,11.0,0.0,76,0.03,,,-99.99,,2013-03-26 00:52:00,
2013-03-25 21:02:00,36.0,29.0,29.91,North,8,11.0,0.0,76,0.03,,,-99.99,,2013-03-26 01:02:00,
2013-03-25 22:52:00,34.0,29.0,29.97,North,349,10.0,0.0,82,0.03,,,-99.99,,2013-03-26 02:52:00,
2013-03-25 22:53:00,35.0,29.0,29.96,North,10,12.0,0.0,80,0.03,,,-99.99,,2013-03-26 02:53:00,
2013-03-25 23:02:00,35.0,30.0,29.96,NNW,338,11.0,0.0,81,0.03,,,-99.99,,2013-03-26 03:02:00,
2013-03-25 23:12:00,35.0,30.0,29.96,NNW,338,11.0,0.0,81,0.03,,,-99.99,,2013-03-26 03:12:00,
2013-03-25 23:22:00,34.0,29.0,29.97,North,349,10.0,0.0,82,0.03,,,-99.99,,2013-03-26 03:22:00,
2013-03-25 23:34:00,34.0,29.0,29.97,North,349,10.0,0.0,82,0.03,,,-99.99,,2013-03-26 03:34:00,
2013-03-25 23:42:00,34.0,29.0,29.97,North,349,10.0,0.0,82,0.03,,,-99.99,,2013-03-26 03:42:00,